• Join FlightAware (Why Join?)
  • Login
  • US Flag 
07:52PM EST


 

Airport Tracker/Info


-or-


 

Live Flight TrackerFlight Track Log ✈ FSR411 ✈ 18-Aug-2013 ✈ KCMI - KISM

Flight Track Log - Related Links

Times and Time Zones

All times are in EDT time to prevent confusion due to time zone crossing. See the FSR411 flight status page for this flight to view local times or setup timezone preferences in your user account.

Time Position Orientation Groundspeed Altitude Reporting Facility
EDT Latitude Longitude Course Direction KTS MPH feet Rate Location/Type
06:13PM 40.0242 -88.3353 153° Southeast 209 241 41,000  Level Indianapolis Center
06:14PM 39.9656 -88.3008 156° South 230 265 41,000 -15,360 Level Indianapolis Center
06:15PM 39.9047 -88.2575 151° Southeast 263 303 9,300 -15,000 Descending Indianapolis Center
06:16PM 39.8275 -88.2100 155° Southeast 295 339 10,000 300 Climbing Indianapolis Center
06:17PM 39.7386 -88.1544 154° Southeast 340 391 10,000 300 Level Indianapolis Center
06:18PM 39.2399 -87.7821 153° Southeast  Level FlightAware Approximate
06:18PM 39.6308 -88.0883 155° Southeast 356 410 10,700  Level Indianapolis Center
06:19PM 39.5400 -88.0319 154° Southeast 360 414 13,700 3,120 Climbing Indianapolis Center
06:20PM 39.4425 -87.9722 155° Southeast 380 437 17,200 3,360 Climbing Indianapolis Center
06:21PM 39.3308 -87.9033 154° Southeast 397 457 20,700 2,820 Climbing Indianapolis Center
06:22PM 39.2258 -87.8403 155° Southeast 411 473 23,100 2,220 Climbing Indianapolis Center
06:23PM 39.1158 -87.7731 155° Southeast 433 498 25,400 2,160 Climbing Indianapolis Center
06:24PM 39.0050 -87.7064 155° Southeast 440 506 27,600 1,680 Climbing Indianapolis Center
06:25PM 38.8900 -87.6389 155° Southeast 450 518 28,900 660 Climbing Indianapolis Center
06:26PM 38.7703 -87.5650 154° Southeast 473 544 29,000 660 Climbing Indianapolis Center
06:27PM 38.6194 -87.4761 155° Southeast 493 567 30,300 1,620 Climbing Indianapolis Center
06:29PM 38.4997 -87.4036 155° Southeast 479 551 32,400 1,980 Climbing Indianapolis Center
06:30PM 38.3839 -87.3353 155° Southeast 463 533 34,500 1,920 Climbing Indianapolis Center
06:31PM 38.2744 -87.2717 155° Southeast 443 510 36,400 1,680 Climbing Indianapolis Center
06:32PM 38.1692 -87.2114 156° South 425 489 38,000 1,320 Climbing Indianapolis Center
06:33PM 38.0461 -87.1381 155° Southeast 412 474 39,200 960 Climbing Indianapolis Center
06:34PM 37.9433 -87.0769 155° Southeast 410 472 40,000 720 Climbing Indianapolis Center
06:35PM 37.8397 -87.0169 155° Southeast 410 472 40,700 480 Climbing Indianapolis Center
06:36PM 37.7350 -86.9556 155° Southeast 413 475 41,000 120 Climbing Indianapolis Center
06:37PM 37.6264 -86.8925 155° Southeast 428 493 41,000  Level Indianapolis Center
06:38PM 37.5050 -86.8261 157° South 434 499 41,000  Level Indianapolis Center
06:39PM 37.3931 -86.7608 155° Southeast 438 504 41,000  Level Indianapolis Center
06:40PM 37.2814 -86.6947 155° Southeast 438 504 41,000  Level Indianapolis Center
06:41PM 37.1703 -86.6319 156° South 434 499 41,000  Level Indianapolis Center
06:42PM 37.0425 -86.5572 155° Southeast 430 495 41,000  Level Memphis Center
06:43PM 36.9447 -86.5022 156° South 430 495 41,000  Level Memphis Center
06:44PM 36.8367 -86.4400 155° Southeast 430 495 41,000  Level Memphis Center
06:45PM 36.7264 -86.3781 156° South 430 495 41,000  Level Memphis Center
06:46PM 36.6200 -86.3161 155° Southeast 430 495 41,000  Level Memphis Center
06:47PM 36.5097 -86.2544 156° South 420 483 41,000  Level Memphis Center
06:48PM 36.4119 -86.1975 155° Southeast 397 457 41,000  Level Memphis Center
06:49PM 36.3081 -86.1436 157° South 397 457 41,000  Level Memphis Center
06:50PM 36.2058 -86.0872 156° South 397 457 41,000  Level Memphis Center
06:51PM 36.1061 -86.0333 156° South 403 464 41,000  Level Memphis Center
06:53PM 35.8939 -85.9150 156° South 399 459 41,000 120 Level Atlanta Center
06:54PM 35.7925 -85.8617 157° South 399 459 41,400 600 Climbing Atlanta Center
06:55PM 35.6950 -85.8108 157° South 393 452 42,200 600 Climbing Atlanta Center
06:56PM 35.5958 -85.7550 155° Southeast 393 452 42,600 300 Climbing Atlanta Center
06:57PM 35.4944 -85.6967 155° Southeast 393 452 42,900 180 Climbing Atlanta Center
06:58PM 35.3908 -85.6436 157° South 393 452 43,000  Climbing Atlanta Center
06:59PM 35.2831 -85.5831 155° Southeast 405 466 43,000  Level Atlanta Center
07:00PM 35.1753 -85.5278 157° South 416 479 43,000  Level Atlanta Center
07:01PM 35.0672 -85.4700 156° South 416 479 43,000  Level Atlanta Center
07:02PM 34.9594 -85.4125 156° South 416 479 43,000  Level Atlanta Center
07:03PM 34.8517 -85.3550 156° South 416 479 43,000  Level Atlanta Center
07:04PM 34.7458 -85.2978 156° South 416 479 43,000  Level Atlanta Center
07:05PM 34.6378 -85.2406 156° South 416 479 43,000  Level Atlanta Center
07:06PM 34.5319 -85.1836 156° South 416 479 43,000  Level Atlanta Center
07:07PM 34.4178 -85.1217 156° South 410 472 43,000  Level Atlanta Center
07:08PM 34.3117 -85.0650 156° South 410 472 43,000  Level Atlanta Center
07:09PM 34.2058 -85.0083 156° South 416 479 43,000  Level Atlanta Center
07:10PM 34.1019 -84.9569 158° South 411 473 43,000  Level Atlanta Center
07:11PM 33.9917 -84.8981 156° South 417 480 43,000  Level Atlanta Center
07:12PM 33.8833 -84.8469 159° South 417 480 43,000  Level Atlanta Center
07:13PM 33.7878 -84.7936 155° Southeast 423 487 43,000  Level Atlanta Center
07:14PM 33.6794 -84.7378 157° South 423 487 43,000  Level Atlanta Center
07:15PM 33.5567 -84.6769 158° South 423 487 43,000  Level Atlanta Center
07:16PM 33.4611 -84.6239 155° Southeast 423 487 43,000  Level Atlanta Center
07:17PM 33.3528 -84.5686 157° South 418 481 43,000  Level Atlanta Center
07:18PM 33.2444 -84.5133 157° South 418 481 43,000  Level Atlanta Center
07:19PM 33.1339 -84.4828 167° South 412 474 43,000  Level Atlanta Center
07:20PM 33.0192 -84.4772 178° South 407 468 43,000  Level Atlanta Center
07:21PM 32.9086 -84.4719 178° South 401 461 43,000  Level Atlanta Center
07:22PM 32.8000 -84.4689 179° South 401 461 43,000  Level Atlanta Center
07:23PM 32.6894 -84.4608 176° South 401 461 43,000  Level Atlanta Center
07:24PM 32.5808 -84.4556 178° South 401 461 43,000  Level Atlanta Center
07:25PM 32.4661 -84.4550 180° South 406 467 43,000  Level Atlanta Center
07:26PM 32.3553 -84.4494 178° South 406 467 43,000  Level Atlanta Center
07:28PM 32.1508 -84.4408 178° South 403 464 43,000  Level Jacksonville Center
07:29PM 32.0361 -84.4342 177° South 403 464 43,000  Level Jacksonville Center
07:30PM 31.9214 -84.4297 178° South 403 464 43,000  Level Jacksonville Center
07:31PM 31.8044 -84.4253 178° South 403 464 43,000  Level Jacksonville Center
07:32PM 31.6875 -84.4211 178° South 413 475 43,000  Level Jacksonville Center
07:33PM 31.5708 -84.4167 178° South 419 482 43,000  Level Jacksonville Center
07:34PM 31.4539 -84.4122 178° South 419 482 43,000  Level Jacksonville Center
07:35PM 31.3347 -84.4081 178° South 424 488 43,000  Level Jacksonville Center
07:36PM 31.2158 -84.4011 177° South 424 488 43,000  Level Jacksonville Center
07:37PM 31.0969 -84.3967 178° South 424 488 43,000  Level Jacksonville Center
07:38PM 30.9800 -84.4022 182° South 424 488 43,000  Level Jacksonville Center
07:39PM 30.8667 -84.4464 198° South 412 474 43,000  Level Jacksonville Center
07:40PM 30.7533 -84.4928 199° South 422 486 43,000  Level Jacksonville Center
07:41PM 30.6364 -84.4958 181° South 416 479 43,000 -840 Level Jacksonville Center
07:42PM 30.5350 -84.4264 149° Southeast 401 461 41,400 -2,100 Descending Jacksonville Center
07:43PM 30.4206 -84.3933 166° South 413 475 38,900 -2,580 Descending Jacksonville Center
07:44PM 30.3014 -84.4058 185° South 413 475 36,300 -3,000 Descending Jacksonville Center
07:45PM 30.1822 -84.4114 182° South 426 490 32,900 -3,000 Descending Jacksonville Center
07:46PM 30.0789 -84.3375 148° Southeast 409 471 30,400 -2,160 Descending Jacksonville Center
07:47PM 30.0131 -84.2264 124° Southeast 403 464 28,600 -1,800 Descending Jacksonville Center
07:48PM 29.9706 -84.1106 113° Southeast 392 451 26,800 -1,740 Descending Jacksonville Center
07:49PM 29.9192 -84.0044 119° Southeast 387 445 25,200 -1,560 Descending Jacksonville Center
07:50PM 29.8319 -83.9533 153° Southeast 352 405 23,800 -1,500 Descending Jacksonville Center
07:51PM 29.7428 -83.9019 153° Southeast 352 405 22,300 -1,500 Descending Jacksonville Center
07:52PM 29.6764 -83.8178 132° Southeast 357 411 20,800 -1,500 Descending Jacksonville Center
07:53PM 29.6439 -83.7122 109° East 343 395 19,300 -900 Descending Jacksonville Center
07:54PM 29.6131 -83.6092 109° East 338 389 19,000 -660 Descending Jacksonville Center
07:55PM 29.5822 -83.5111 110° East 333 383 18,000 -1,320 Descending Jacksonville Center
07:56PM 29.5514 -83.4131 110° East 333 383 16,400 -1,440 Descending Jacksonville Center
07:57PM 29.5164 -83.3125 112° Southeast 328 377 15,200 -660 Descending Jacksonville Center
07:58PM 29.4308 -83.2908 168° South 286 329 15,100 -60 Descending Jacksonville Center
07:59PM 29.3453 -83.2786 173° South 286 329 15,100  Level Jacksonville Center
08:00PM 29.3225 -83.1881 106° East 260 299 15,100  Level Jacksonville Center
08:01PM 29.3331 -83.0761 84° East 282 325 15,100  Level Jacksonville Center
08:02PM 29.3394 -82.9617 86° East 319 367 15,100  Level Jacksonville Center
08:03PM 29.3417 -82.8472 89° East 344 396 15,100 -360 Level Jacksonville Center
08:03PM 29.2978 -82.7972 135° Southeast 351 404 14,600 -1,200 Descending Jacksonville Center
08:04PM 29.2350 -82.7164 132° Southeast 334 384 13,200 -1,440 Descending Jacksonville Center
08:05PM 29.1806 -82.6381 129° Southeast 319 367 11,700 -1,380 Descending Jacksonville Center
08:06PM 29.1178 -82.5575 132° Southeast 318 366 10,500 -900 Descending Jacksonville Center
08:07PM 29.0614 -82.4769 129° Southeast 318 366 10,000 -300 Descending Jacksonville Center
08:09PM 29.0047 -82.3986 130° Southeast 328 377 10,000  Level Jacksonville Center
08:10PM 28.9333 -82.3019 130° Southeast 328 377 10,000 -180 Level Jacksonville Center
08:11PM 28.8808 -82.2261 128° Southeast 328 377 9,600 -780 Descending Jacksonville Center
08:12PM 28.8281 -82.1603 132° Southeast 305 351 8,500 -840 Descending Jacksonville Center
08:14PM 28.7167 -82.0000 128° Southeast 275 316 7,000 -660 Descending Orlando TRACON
08:15PM 28.6500 -81.9167 132° Southeast 277 319 6,300 -840 Descending Orlando TRACON
08:16PM 28.6167 -81.8833 139° Southeast 270 311 5,500 -1,920 Descending Orlando TRACON
08:17PM 28.5667 -81.8000 124° Southeast 255 293 2,700 -1,560 Descending Orlando TRACON
08:18PM 28.5167 -81.7333 130° Southeast 261 300 2,000 -360 Descending Orlando TRACON
08:19PM 28.4833 -81.6833 127° Southeast 179 206 2,000  Level Orlando TRACON
08:20PM 28.4500 -81.6500 139° Southeast 171 197 2,000  Level Orlando TRACON
08:21PM 28.4167 -81.6000 127° Southeast 176 203 2,000  Level Orlando TRACON
08:22PM 28.4000 -81.5500 111° Southeast 177 204 2,000 -60 Level Orlando TRACON
08:23PM 28.3833 -81.5000 111° Southeast 177 204 1,900 -420 Descending Orlando TRACON
08:24PM 28.3500 -81.4833 156° South 159 183 1,300 -720 Descending Orlando TRACON
08:25PM 28.3167 -81.4500 139° Southeast 128 147 500 -780 Descending Orlando TRACON
08:27PM 28.2898 -81.4371 131° Southeast  Level Estimated
08:34PM 28.2898 -81.4371 131° Southeast  Level Estimated
08:35PM 28.2898 -81.4371 131° Southeast  Level Estimated
08:36PM 28.2898 -81.4371 131° Southeast  Level Estimated
08:37PM 28.2898 -81.4371 131° Southeast  Level Estimated